Anzahl Datensätze: 48
min. Temperatur: 1.8 °C
max. Temperatur: 6.9 °C
max. Windgeschwindigkeit: 13.0 km/h
Niederschlagsumme: 0.2 mm
| Datum |
Zeit |
Temp °C |
Feuchte % |
Taupunkt °C |
Luftdruck hPa |
Wind km/h |
Windrichtung |
Strahlung w/m² |
Niederschlag mm |
|---|---|---|---|---|---|---|---|---|---|
| 08.12.2023 | 00:00 | 2.3 | 84 | -0.1 | 1011.1 | 0.0 | O | 0 | 0.2 |
| 08.12.2023 | 00:30 | 2.3 | 83 | -0.3 | 1011.5 | 0.0 | SO | 0 | 0.0 |
| 08.12.2023 | 01:00 | 2.2 | 84 | -0.2 | 1011.1 | 0.0 | O | 0 | 0.0 |
| 08.12.2023 | 01:30 | 2.2 | 84 | -0.2 | 1011.1 | 0.0 | OSO | 0 | 0.0 |
| 08.12.2023 | 02:00 | 2.2 | 86 | 0.1 | 1010.4 | 0.0 | OSO | 0 | 0.0 |
| 08.12.2023 | 02:30 | 2.1 | 87 | 0.2 | 1010.2 | 0.0 | OSO | 0 | 0.0 |
| 08.12.2023 | 03:00 | 2.0 | 88 | 0.2 | 1009.6 | 0.0 | OSO | 0 | 0.0 |
| 08.12.2023 | 03:30 | 1.8 | 89 | 0.2 | 1010.1 | 0.0 | OSO | 0 | 0.0 |
| 08.12.2023 | 04:00 | 1.8 | 91 | 0.5 | 1009.6 | 0.0 | O | 0 | 0.0 |
| 08.12.2023 | 04:30 | 1.9 | 91 | 0.6 | 1009.7 | 0.0 | OSO | 0 | 0.0 |
| 08.12.2023 | 05:00 | 1.9 | 91 | 0.6 | 1009.8 | 0.0 | SSO | 0 | 0.0 |
| 08.12.2023 | 05:30 | 2.1 | 92 | 0.9 | 1009.9 | 0.0 | SSO | 0 | 0.0 |
| 08.12.2023 | 06:00 | 2.1 | 92 | 0.9 | 1010.2 | 0.0 | SO | 0 | 0.0 |
| 08.12.2023 | 06:30 | 2.3 | 93 | 1.3 | 1009.9 | 0.0 | O | 0 | 0.0 |
| 08.12.2023 | 07:00 | 2.4 | 93 | 1.4 | 1010.2 | 0.0 | O | 0 | 0.0 |
| 08.12.2023 | 07:30 | 2.6 | 93 | 1.6 | 1010.4 | 0.0 | OSO | 0 | 0.0 |
| 08.12.2023 | 08:00 | 2.7 | 94 | 1.8 | 1010.6 | 0.0 | SSO | 0 | 0.0 |
| 08.12.2023 | 08:30 | 2.7 | 94 | 1.8 | 1010.9 | 0.0 | WNW | 0 | 0.0 |
| 08.12.2023 | 09:00 | 2.9 | 95 | 2.2 | 1011.1 | 0.0 | NNW | 7 | 0.0 |
| 08.12.2023 | 09:30 | 3.2 | 95 | 2.5 | 1011.3 | 0.0 | W | 12 | 0.0 |
| 08.12.2023 | 10:00 | 3.4 | 95 | 2.7 | 1011.7 | 0.0 | NNW | 14 | 0.0 |
| 08.12.2023 | 10:30 | 3.6 | 95 | 2.9 | 1011.9 | 0.0 | NW | 30 | 0.0 |
| 08.12.2023 | 11:00 | 4.1 | 96 | 3.5 | 1011.9 | 0.0 | NW | 39 | 0.0 |
| 08.12.2023 | 11:30 | 4.4 | 96 | 3.8 | 1012.0 | 0.0 | NW | 54 | 0.0 |
| 08.12.2023 | 12:00 | 4.9 | 96 | 4.3 | 1012.0 | 0.0 | NW | 54 | 0.0 |
| 08.12.2023 | 12:30 | 5.6 | 96 | 5.0 | 1011.9 | 0.0 | NW | 83 | 0.0 |
| 08.12.2023 | 13:00 | 6.1 | 96 | 5.5 | 1011.9 | 0.0 | NW | 118 | 0.0 |
| 08.12.2023 | 13:30 | 6.7 | 95 | 6.0 | 1012.1 | 0.0 | WNW | 49 | 0.0 |
| 08.12.2023 | 14:00 | 6.9 | 94 | 6.0 | 1012.3 | 0.0 | W | 44 | 0.0 |
| 08.12.2023 | 14:30 | 6.9 | 92 | 5.7 | 1012.6 | 0.0 | W | 33 | 0.0 |
| 08.12.2023 | 15:00 | 6.9 | 92 | 5.7 | 1012.8 | 0.0 | NW | 23 | 0.0 |
| 08.12.2023 | 15:30 | 6.8 | 92 | 5.6 | 1013.0 | 0.0 | W | 14 | 0.0 |
| 08.12.2023 | 16:00 | 6.6 | 92 | 5.4 | 1013.4 | 0.0 | W | 5 | 0.0 |
| 08.12.2023 | 16:30 | 6.5 | 92 | 5.3 | 1013.7 | 0.0 | WNW | 0 | 0.0 |
| 08.12.2023 | 17:00 | 6.4 | 92 | 5.2 | 1014.0 | 0.0 | W | 0 | 0.0 |
| 08.12.2023 | 17:30 | 6.4 | 93 | 5.4 | 1014.6 | 0.0 | W | 0 | 0.0 |
| 08.12.2023 | 18:00 | 6.3 | 93 | 5.3 | 1014.6 | 0.0 | W | 0 | 0.0 |
| 08.12.2023 | 18:30 | 6.3 | 94 | 5.4 | 1014.7 | 0.0 | W | 0 | 0.0 |
| 08.12.2023 | 19:00 | 6.3 | 94 | 5.4 | 1015.0 | 0.0 | W | 0 | 0.0 |
| 08.12.2023 | 19:30 | 6.3 | 94 | 5.4 | 1015.0 | 0.0 | W | 0 | 0.0 |
| 08.12.2023 | 20:00 | 6.3 | 94 | 5.4 | 1015.5 | 0.0 | W | 0 | 0.0 |
| 08.12.2023 | 20:30 | 6.3 | 95 | 5.6 | 1015.4 | 0.0 | W | 0 | 0.0 |
| 08.12.2023 | 21:00 | 6.2 | 95 | 5.5 | 1015.4 | 0.0 | W | 0 | 0.0 |
| 08.12.2023 | 21:30 | 6.2 | 95 | 5.5 | 1015.6 | 0.0 | W | 0 | 0.0 |
| 08.12.2023 | 22:00 | 6.2 | 95 | 5.5 | 1015.7 | 0.0 | W | 0 | 0.0 |
| 08.12.2023 | 22:30 | 6.3 | 95 | 5.6 | 1015.6 | 0.0 | O | 0 | 0.0 |
| 08.12.2023 | 23:00 | 6.2 | 95 | 5.5 | 1015.9 | 0.0 | O | 0 | 0.0 |
| 08.12.2023 | 23:30 | 6.3 | 95 | 5.6 | 1016.1 | 0.0 | NNO | 0 | 0.0 |